Ketchikan, Alaska
Current Conditions -  °F | °C
As of 5:53 PM on Friday 19 Dec 2014 (Local Time) from PAKT Reporting Station
Light Rain Light Rain  
Wind Chill: 35°   Ceiling: 2600
Heat Index: 44°   Visibility: 10mi
Dew Point: 38°   Wind: 25mph
Humidity: 79%   Direction: 130°SE
Pressure: 29.28"   Gusts: 37mph
Location:  55.35°N, 131.69°W
Report Text: PAKT 200253Z 13022G32KT 10SM -RA OVC026 07/03 A2928 RMK AO2 PK WND 13035/0205 RAB05 SLP915 P0002 60005 T00670033 58007
Loading
Personal Weather Stations






























Interactive Weather Map New forecast layout! Learn more

10-Day Weather Forecast

Advertisements
Track Severe Weather on mobile